CheckWX is a tool to help pilots better visualize weather data.  It is not intended as a substitute for an official pre-flight weather briefing.

19:02:56 UTC

HEAT METAR
Assiut International Airport
Assiut, Egypt
Current

3 hours ago

HEAT 191600Z 31012KT CAVOK 37/19 Q1011 NOSIG
Observed
Jun-19 @ 16:00 UTC
Wind
  • 310° at 12 KTS
Visibility
10,000+ meters
Flight Rules
VFR
Cloud Levels
  • Clear skies
Temperature
37°C / 99°F
Dewpoint
19°C / 66°F
Humidity
35%
Altimeter
29.85" Hg
Pressure
1010.92 hPa
Previous

4 hours ago

HEAT 191500Z 35013KT CAVOK 39/21 Q1011 NOSIG
Observed
Jun-19 @ 15:00 UTC
Wind
  • 350° at 13 KTS
Visibility
10,000+ meters
Flight Rules
VFR
Cloud Levels
  • Clear skies
Temperature
39°C / 102°F
Dewpoint
21°C / 70°F
Humidity
35%
Altimeter
29.85" Hg
Pressure
1010.92 hPa
Previous

5 hours ago

HEAT 191400Z 33016KT CAVOK 41/22 Q1011 NOSIG
Observed
Jun-19 @ 14:00 UTC
Wind
  • 330° at 16 KTS
Visibility
10,000+ meters
Flight Rules
VFR
Cloud Levels
  • Clear skies
Temperature
41°C / 106°F
Dewpoint
22°C / 72°F
Humidity
34%
Altimeter
29.85" Hg
Pressure
1010.92 hPa